createdAt,value
2024-03-04T00:01:17.306Z,17.80
2024-03-04T00:03:19.250Z,17.50
2024-03-04T00:05:22.123Z,17.37
2024-03-04T00:07:26.921Z,15.17
2024-03-04T00:09:29.688Z,13.47
2024-03-04T00:11:32.473Z,15.87
2024-03-04T00:13:37.253Z,16.50
2024-03-04T00:15:40.116Z,16.10
2024-03-04T00:17:44.347Z,16.20
2024-03-04T00:19:46.169Z,15.50
2024-03-04T00:21:49.033Z,17.17
2024-03-04T00:23:52.215Z,17.10
2024-03-04T00:25:54.960Z,15.60
2024-03-04T00:27:58.076Z,18.10
2024-03-04T00:29:59.915Z,18.20
2024-03-04T00:32:02.665Z,18.50
2024-03-04T00:34:06.818Z,18.70
2024-03-04T00:36:09.887Z,18.70
2024-03-04T00:38:12.170Z,17.07
2024-03-04T00:40:15.164Z,15.60
2024-03-04T00:42:18.679Z,17.30
2024-03-04T00:44:22.046Z,19.27
2024-03-04T00:46:25.190Z,19.60
2024-03-04T00:48:28.182Z,19.07
2024-03-04T00:50:32.990Z,18.90
2024-03-04T00:52:38.484Z,18.83
2024-03-04T00:54:41.668Z,18.83
2024-03-04T00:56:45.015Z,18.90
2024-03-04T00:58:47.897Z,18.53
2024-03-04T01:00:50.705Z,19.60
2024-03-04T01:02:54.325Z,19.63
2024-03-04T01:04:57.138Z,17.07
2024-03-04T01:07:01.283Z,16.65
2024-03-04T01:09:05.100Z,15.30
2024-03-04T01:11:08.780Z,18.60
2024-03-04T01:13:11.625Z,16.47
2024-03-04T01:15:14.822Z,19.60
2024-03-04T01:17:18.211Z,17.10
2024-03-04T01:19:24.870Z,18.33
2024-03-04T01:21:27.686Z,16.83
2024-03-04T01:23:32.063Z,14.73
2024-03-04T01:25:34.013Z,16.37
2024-03-04T01:27:37.127Z,16.00
2024-03-04T01:29:40.622Z,15.97
2024-03-04T01:31:43.746Z,15.87
2024-03-04T01:33:48.056Z,16.53
2024-03-04T01:35:50.797Z,15.67
2024-03-04T01:37:53.546Z,18.00
2024-03-04T01:39:57.647Z,17.30
2024-03-04T01:42:00.394Z,18.57
2024-03-04T01:44:04.532Z,18.17
2024-03-04T01:46:07.574Z,19.33
2024-03-04T01:48:10.827Z,19.17
2024-03-04T01:50:13.779Z,19.97
2024-03-04T01:52:16.948Z,16.97
2024-03-04T01:54:19.771Z,19.73
2024-03-04T01:56:23.869Z,18.73
2024-03-04T01:58:26.658Z,18.83
2024-03-04T02:00:30.073Z,18.77
2024-03-04T02:02:32.825Z,16.50
2024-03-04T02:04:35.619Z,15.23
2024-03-04T02:06:38.757Z,14.53
2024-03-04T02:08:41.673Z,13.53
2024-03-04T02:10:43.736Z,16.57
2024-03-04T02:12:48.370Z,17.33
2024-03-04T02:14:50.181Z,16.80
2024-03-04T02:16:53.161Z,16.80
2024-03-04T02:18:56.238Z,16.00
2024-03-04T02:21:02.678Z,17.27
2024-03-04T02:23:07.358Z,16.57
2024-03-04T02:25:12.820Z,18.13
2024-03-04T02:27:15.623Z,17.83
2024-03-04T02:29:17.454Z,18.67
2024-03-04T02:31:20.298Z,17.23
2024-03-04T02:33:23.290Z,17.70
2024-03-04T02:35:28.351Z,19.00
2024-03-04T02:37:31.286Z,16.93
2024-03-04T02:39:34.513Z,16.40
2024-03-04T02:41:37.844Z,15.60
2024-03-04T02:43:40.735Z,16.90
2024-03-04T02:45:43.687Z,17.73
2024-03-04T02:47:46.532Z,17.63
2024-03-04T02:49:49.319Z,14.20
2024-03-04T02:51:52.111Z,16.43
2024-03-04T02:53:54.870Z,15.60
2024-03-04T02:55:58.948Z,18.37
2024-03-04T02:58:00.784Z,15.47
2024-03-04T03:00:04.180Z,16.70
2024-03-04T03:02:07.481Z,16.40
2024-03-04T03:04:10.298Z,16.87
2024-03-04T03:06:13.070Z,21.17
2024-03-04T03:08:14.865Z,18.40
2024-03-04T03:10:17.686Z,22.27
2024-03-04T03:12:21.820Z,17.60
2024-03-04T03:14:24.577Z,17.87
2024-03-04T03:16:27.372Z,17.77
2024-03-04T03:18:30.142Z,17.23
2024-03-04T03:20:32.900Z,16.30
2024-03-04T03:22:35.977Z,16.03
2024-03-04T03:24:38.774Z,18.57
2024-03-04T03:26:41.534Z,17.47
2024-03-04T03:28:45.758Z,18.47
2024-03-04T03:30:48.624Z,17.50
2024-03-04T03:32:51.373Z,16.63
2024-03-04T03:34:54.160Z,17.63
2024-03-04T03:36:56.945Z,15.20
2024-03-04T03:38:59.720Z,15.30
2024-03-04T03:41:02.635Z,15.47
2024-03-04T03:43:05.614Z,15.90
2024-03-04T03:45:09.929Z,15.37
2024-03-04T03:47:12.677Z,16.87
2024-03-04T03:49:16.427Z,17.47
2024-03-04T03:51:19.234Z,17.67
2024-03-04T03:53:24.185Z,18.07
2024-03-04T03:55:27.234Z,15.47
2024-03-04T03:57:37.797Z,13.23
2024-03-04T03:59:49.221Z,11.27
2024-03-04T04:01:54.316Z,11.87
2024-03-04T04:03:57.191Z,17.03
2024-03-04T04:06:00.504Z,13.90
2024-03-04T04:08:03.311Z,13.47
2024-03-04T04:10:06.836Z,16.07
2024-03-04T04:12:10.803Z,17.27
2024-03-04T04:14:13.562Z,13.43
2024-03-04T04:16:16.359Z,17.17
2024-03-04T04:18:20.565Z,17.63
2024-03-04T04:20:23.309Z,16.60
2024-03-04T04:22:28.094Z,16.40
2024-03-04T04:24:31.033Z,17.20
2024-03-04T04:26:34.991Z,18.67
2024-03-04T04:28:38.147Z,17.47
2024-03-04T04:30:41.566Z,19.40
2024-03-04T04:32:44.490Z,19.40
2024-03-04T04:34:48.645Z,18.00
2024-03-04T04:36:51.765Z,17.10
2024-03-04T04:38:54.496Z,19.90
2024-03-04T04:40:57.788Z,16.73
2024-03-04T04:43:00.624Z,14.73
2024-03-04T04:45:03.394Z,15.00
2024-03-04T04:47:06.362Z,11.70
2024-03-04T04:49:09.210Z,12.67
2024-03-04T04:51:13.278Z,14.60
2024-03-04T04:53:16.028Z,15.90
2024-03-04T04:55:19.407Z,17.07
2024-03-04T04:57:23.106Z,17.90
2024-03-04T04:59:25.860Z,16.77
2024-03-04T05:01:27.917Z,19.80
2024-03-04T05:03:47.061Z,18.20
2024-03-04T05:05:54.538Z,19.23
2024-03-04T05:07:58.733Z,19.37
2024-03-04T05:10:01.588Z,20.57
2024-03-04T05:12:03.673Z,20.47
2024-03-04T05:14:06.603Z,18.73
2024-03-04T05:16:09.818Z,18.23
2024-03-04T05:18:12.585Z,17.20
2024-03-04T05:20:17.018Z,17.87
2024-03-04T05:22:19.953Z,20.43
2024-03-04T05:24:24.057Z,20.60
2024-03-04T05:26:26.840Z,20.07
2024-03-04T05:28:29.673Z,20.47
2024-03-04T05:30:32.526Z,22.97
2024-03-04T05:32:35.301Z,27.83
2024-03-04T05:34:38.577Z,33.00
2024-03-04T05:36:44.944Z,28.67
2024-03-04T05:38:47.717Z,21.53
2024-03-04T05:40:51.967Z,19.90
2024-03-04T05:42:54.732Z,19.30
2024-03-04T05:44:56.508Z,20.50
2024-03-04T05:46:59.287Z,21.03
2024-03-04T05:49:02.145Z,27.13
2024-03-04T05:51:05.481Z,25.50
2024-03-04T05:53:08.227Z,23.70
2024-03-04T05:55:11.447Z,19.13
2024-03-04T05:57:15.954Z,18.30
2024-03-04T05:59:19.566Z,24.00
2024-03-04T06:01:22.417Z,27.47
2024-03-04T06:03:25.206Z,27.67
2024-03-04T06:05:28.211Z,23.57
2024-03-04T06:07:30.094Z,29.30
2024-03-04T06:09:32.872Z,27.87
2024-03-04T06:11:35.660Z,31.07
2024-03-04T06:13:39.821Z,28.83
2024-03-04T06:15:42.639Z,28.10
2024-03-04T06:17:45.408Z,29.60
2024-03-04T06:19:48.224Z,29.97
2024-03-04T06:22:01.224Z,35.17
2024-03-04T06:24:11.454Z,32.37
2024-03-04T06:26:13.509Z,28.33
2024-03-04T06:28:16.282Z,26.97
2024-03-04T06:30:20.466Z,24.90
2024-03-04T06:32:23.273Z,27.17
2024-03-04T06:34:27.424Z,27.57
2024-03-04T06:36:30.194Z,23.60
2024-03-04T06:38:32.981Z,26.03
2024-03-04T06:40:35.774Z,23.67
2024-03-04T06:42:38.539Z,28.33
2024-03-04T06:44:41.875Z,30.00
2024-03-04T06:46:46.121Z,26.07
2024-03-04T06:48:48.908Z,29.00
2024-03-04T06:50:50.709Z,25.97
2024-03-04T06:52:53.471Z,34.27
2024-03-04T06:54:56.219Z,26.50
2024-03-04T06:56:58.023Z,32.70
2024-03-04T06:59:00.798Z,27.07
2024-03-04T07:01:03.716Z,28.77
2024-03-04T07:03:07.939Z,25.93
2024-03-04T07:05:11.001Z,26.00
2024-03-04T07:07:13.790Z,28.17
2024-03-04T07:09:16.558Z,31.13
2024-03-04T07:11:19.977Z,25.50
2024-03-04T07:13:22.859Z,29.07
2024-03-04T07:15:25.649Z,28.50
2024-03-04T07:17:28.430Z,30.10
2024-03-04T07:19:31.710Z,29.77
2024-03-04T07:21:34.469Z,32.83
2024-03-04T07:23:38.535Z,25.90
2024-03-04T07:25:41.354Z,28.40
2024-03-04T07:27:44.325Z,26.90
2024-03-04T07:29:52.798Z,22.43
2024-03-04T07:32:01.776Z,29.97
2024-03-04T07:34:04.609Z,28.70
2024-03-04T07:36:10.269Z,32.97
2024-03-04T07:38:13.862Z,30.87
2024-03-04T07:40:16.841Z,28.17
2024-03-04T07:42:21.609Z,29.67
2024-03-04T07:44:24.400Z,27.57
2024-03-04T07:46:27.226Z,26.73
2024-03-04T07:48:30.000Z,26.33
2024-03-04T07:50:32.742Z,28.93
2024-03-04T07:52:36.872Z,30.30
2024-03-04T07:54:39.693Z,27.50
2024-03-04T07:56:42.449Z,26.93
2024-03-04T07:58:45.314Z,30.10
2024-03-04T08:00:47.147Z,27.60
2024-03-04T08:02:50.026Z,26.50
2024-03-04T08:04:51.896Z,25.70
2024-03-04T08:06:54.729Z,26.80
2024-03-04T08:08:58.805Z,24.10
2024-03-04T08:11:01.601Z,28.17
2024-03-04T08:13:04.891Z,24.57
2024-03-04T08:15:08.877Z,25.90
2024-03-04T08:17:12.265Z,24.87
2024-03-04T08:19:15.116Z,25.50
2024-03-04T08:21:17.927Z,24.10
2024-03-04T08:23:19.763Z,25.60
2024-03-04T08:25:23.905Z,24.90
2024-03-04T08:27:26.773Z,25.70
2024-03-04T08:29:29.921Z,28.17
2024-03-04T08:31:33.804Z,25.93
2024-03-04T08:33:36.702Z,26.83
2024-03-04T08:35:39.507Z,26.07
2024-03-04T08:37:43.498Z,30.20
2024-03-04T08:39:48.466Z,29.27
2024-03-04T08:41:52.617Z,28.97
2024-03-04T08:43:55.555Z,28.97
2024-03-04T08:45:58.338Z,30.77
2024-03-04T08:48:01.151Z,33.63
2024-03-04T08:50:04.538Z,28.17
2024-03-04T08:52:07.753Z,30.53
2024-03-04T08:54:11.844Z,29.10
2024-03-04T08:56:15.051Z,30.20
2024-03-04T08:58:19.176Z,33.80
2024-03-04T09:00:21.392Z,36.27
2024-03-04T09:02:24.485Z,33.13
2024-03-04T09:04:27.316Z,32.23
2024-03-04T09:06:30.162Z,32.30
2024-03-04T09:08:32.971Z,33.87
2024-03-04T09:10:37.676Z,35.37
2024-03-04T09:12:42.071Z,33.63
2024-03-04T09:14:46.153Z,35.20
2024-03-04T09:16:49.019Z,36.90
2024-03-04T09:18:52.199Z,35.87
2024-03-04T09:20:54.939Z,35.83
2024-03-04T09:22:57.684Z,37.00
2024-03-04T09:25:00.469Z,33.77
2024-03-04T09:27:03.506Z,36.33
2024-03-04T09:29:06.855Z,36.37
2024-03-04T09:31:10.978Z,33.67
2024-03-04T09:33:13.823Z,34.03
2024-03-04T09:35:17.130Z,36.20
2024-03-04T09:37:19.964Z,34.30
2024-03-04T09:39:22.722Z,35.17
2024-03-04T09:41:26.485Z,33.80
2024-03-04T09:43:30.253Z,36.83
2024-03-04T09:45:33.038Z,36.30
2024-03-04T09:47:39.086Z,36.13
2024-03-04T09:49:41.000Z,37.90
2024-03-04T09:51:43.804Z,36.20
2024-03-04T09:53:46.584Z,33.73
2024-03-04T09:55:49.428Z,36.60
2024-03-04T09:57:52.275Z,34.07
2024-03-04T09:59:55.038Z,37.40
2024-03-04T10:01:59.837Z,36.53
2024-03-04T10:04:04.875Z,34.83
2024-03-04T10:06:07.765Z,35.33
2024-03-04T10:08:10.616Z,36.23
2024-03-04T10:10:14.479Z,37.60
2024-03-04T10:12:17.311Z,37.37
2024-03-04T10:14:20.071Z,39.57
2024-03-04T10:16:22.820Z,37.33
2024-03-04T10:18:25.646Z,38.10
2024-03-04T10:20:29.777Z,38.60
2024-03-04T10:22:35.735Z,42.73
2024-03-04T10:24:38.579Z,45.80
2024-03-04T10:26:41.943Z,41.80
2024-03-04T10:28:46.230Z,44.17
2024-03-04T10:30:48.995Z,44.73
2024-03-04T10:32:52.648Z,46.40
2024-03-04T10:35:03.068Z,43.10
2024-03-04T10:37:07.308Z,43.13
2024-03-04T10:39:15.068Z,44.70
2024-03-04T10:41:18.884Z,42.10
2024-03-04T10:43:22.731Z,43.63
2024-03-04T10:45:24.701Z,46.40
2024-03-04T10:47:27.509Z,46.97
2024-03-04T10:49:30.687Z,45.37
2024-03-04T10:51:33.606Z,46.37
2024-03-04T10:53:36.864Z,43.40
2024-03-04T10:55:39.665Z,42.87
2024-03-04T10:57:44.731Z,43.97
2024-03-04T10:59:48.155Z,45.97
2024-03-04T11:01:51.032Z,50.20
2024-03-04T11:03:58.626Z,49.47
2024-03-04T11:06:02.106Z,47.37
2024-03-04T11:08:06.506Z,49.13
2024-03-04T11:10:15.968Z,46.80
2024-03-04T11:12:18.823Z,47.33
2024-03-04T11:14:30.939Z,48.10
2024-03-04T11:16:41.787Z,48.23
2024-03-04T11:18:52.079Z,50.07
2024-03-04T11:20:54.847Z,49.40
2024-03-04T11:22:57.629Z,48.27
2024-03-04T11:24:59.438Z,50.30
2024-03-04T11:27:03.533Z,51.00
2024-03-04T11:29:06.493Z,50.30
2024-03-04T11:31:11.642Z,52.00
2024-03-04T11:33:39.900Z,50.90
2024-03-04T11:35:42.748Z,52.03
2024-03-04T11:37:52.487Z,53.67
2024-03-04T11:39:57.298Z,51.33
2024-03-04T11:42:00.357Z,52.47
2024-03-04T11:44:04.575Z,52.10
2024-03-04T11:46:11.665Z,51.50
2024-03-04T11:48:29.247Z,47.50
2024-03-04T11:50:44.659Z,50.07
2024-03-04T11:52:47.536Z,52.83
2024-03-04T11:54:50.644Z,49.10
2024-03-04T11:56:52.447Z,50.40
2024-03-04T11:58:57.910Z,50.57
2024-03-04T12:01:08.894Z,50.33
2024-03-04T12:03:20.216Z,48.83
2024-03-04T12:05:23.005Z,45.50
2024-03-04T12:07:25.581Z,47.63
2024-03-04T12:09:45.361Z,51.33
2024-03-04T12:11:51.114Z,50.60
2024-03-04T12:13:55.152Z,52.17
2024-03-04T12:15:59.581Z,50.00
2024-03-04T12:18:03.746Z,51.17
2024-03-04T12:20:08.534Z,51.17
2024-03-04T12:22:11.436Z,51.47
2024-03-04T12:24:17.762Z,51.30
2024-03-04T12:26:20.505Z,47.90
2024-03-04T12:28:23.316Z,50.00
2024-03-04T12:30:27.326Z,53.70
2024-03-04T12:32:29.186Z,51.80
2024-03-04T12:34:33.345Z,52.47
2024-03-04T12:36:36.090Z,52.80
2024-03-04T12:38:39.538Z,54.53
2024-03-04T12:40:42.298Z,54.03
2024-03-04T12:42:45.072Z,55.10
2024-03-04T12:44:47.836Z,55.43
2024-03-04T12:46:50.892Z,51.83
2024-03-04T12:48:53.996Z,52.67
2024-03-04T12:50:58.087Z,50.47
2024-03-04T12:53:00.901Z,53.67
2024-03-04T12:55:03.767Z,73.23
2024-03-04T12:57:06.670Z,52.50
2024-03-04T12:59:09.446Z,57.27
2024-03-04T13:01:16.053Z,53.40
2024-03-04T13:03:18.907Z,52.37
2024-03-04T13:05:21.792Z,51.07
2024-03-04T13:07:25.928Z,52.53
2024-03-04T13:09:28.682Z,51.90
2024-03-04T13:11:30.483Z,50.80
2024-03-04T13:13:33.290Z,50.80
2024-03-04T13:15:40.936Z,52.40
2024-03-04T13:17:44.488Z,54.43
2024-03-04T13:19:46.483Z,53.77
2024-03-04T13:21:49.289Z,49.97
2024-03-04T13:23:53.418Z,51.67
2024-03-04T13:25:56.319Z,53.00
2024-03-04T13:27:59.090Z,50.60
2024-03-04T13:30:03.426Z,49.43
2024-03-04T13:32:06.511Z,46.27
2024-03-04T13:34:09.493Z,51.67
2024-03-04T13:36:12.288Z,52.30
2024-03-04T13:38:15.127Z,50.80
2024-03-04T13:40:19.262Z,49.50
2024-03-04T13:42:22.390Z,48.80
2024-03-04T13:44:25.185Z,46.80
2024-03-04T13:46:29.314Z,48.30
2024-03-04T13:48:32.170Z,47.40
2024-03-04T13:50:34.978Z,47.90
2024-03-04T13:52:37.118Z,49.00
2024-03-04T13:54:39.911Z,48.40
2024-03-04T13:56:43.975Z,50.80
2024-03-04T13:58:46.894Z,45.37
2024-03-04T14:00:49.960Z,47.20
2024-03-04T14:02:52.746Z,48.47
2024-03-04T14:04:55.522Z,49.53
2024-03-04T14:06:59.533Z,44.53
2024-03-04T14:09:02.557Z,44.03
2024-03-04T14:11:06.086Z,46.17
2024-03-04T14:13:14.603Z,47.00
2024-03-04T14:15:19.154Z,49.87
2024-03-04T14:17:22.048Z,48.30
2024-03-04T14:19:24.858Z,45.00
2024-03-04T14:21:27.639Z,47.70
2024-03-04T14:23:35.316Z,48.60
2024-03-04T14:25:40.904Z,42.37
2024-03-04T14:27:42.797Z,44.00
2024-03-04T14:29:47.490Z,45.27
2024-03-04T14:31:49.517Z,48.27
2024-03-04T14:33:53.827Z,47.17
2024-03-04T14:35:55.643Z,44.90
2024-03-04T14:37:58.369Z,47.60
2024-03-04T14:40:01.167Z,45.50
2024-03-04T14:42:04.840Z,45.40
2024-03-04T14:44:08.221Z,48.33
2024-03-04T14:46:12.400Z,42.97
2024-03-04T14:48:15.248Z,45.08
2024-03-04T14:50:18.487Z,52.70
2024-03-04T14:52:22.002Z,42.43
2024-03-04T14:54:24.827Z,47.93
2024-03-04T14:56:29.842Z,46.33
2024-03-04T14:58:32.724Z,50.37
2024-03-04T15:00:36.380Z,48.33
2024-03-04T15:02:41.167Z,48.73
2024-03-04T15:04:44.065Z,47.90
2024-03-04T15:06:46.825Z,50.60
2024-03-04T15:08:51.507Z,76.83
2024-03-04T15:10:57.033Z,52.17
2024-03-04T15:13:01.253Z,52.10
2024-03-04T15:15:06.492Z,50.30
2024-03-04T15:17:10.637Z,49.50
2024-03-04T15:19:15.170Z,48.67
2024-03-04T15:21:18.047Z,210.83
2024-03-04T15:23:20.825Z,51.30
2024-03-04T15:25:22.640Z,50.57
2024-03-04T15:27:25.441Z,50.67
2024-03-04T15:29:28.244Z,48.30
2024-03-04T15:31:31.707Z,48.10
2024-03-04T15:33:34.542Z,47.80
2024-03-04T15:35:38.838Z,48.43
2024-03-04T15:37:43.375Z,47.83
2024-03-04T15:39:46.137Z,46.13
2024-03-04T15:41:47.961Z,50.43
2024-03-04T15:43:53.489Z,51.57
2024-03-04T15:45:56.331Z,53.47
2024-03-04T15:47:59.132Z,49.97
2024-03-04T15:50:01.995Z,47.93
2024-03-04T15:52:07.101Z,49.00
2024-03-04T15:54:08.925Z,41.77
2024-03-04T15:56:11.686Z,45.90
2024-03-04T15:58:14.545Z,48.40
2024-03-04T16:00:18.057Z,46.47
2024-03-04T16:02:21.053Z,47.40
2024-03-04T16:04:23.865Z,48.53
2024-03-04T16:06:30.754Z,48.60
2024-03-04T16:08:34.850Z,47.57
2024-03-04T16:10:38.251Z,48.77
2024-03-04T16:12:41.151Z,47.20
2024-03-04T16:14:42.990Z,46.87
2024-03-04T16:16:45.775Z,48.27
2024-03-04T16:18:47.619Z,47.50
2024-03-04T16:20:50.380Z,47.40
2024-03-04T16:22:53.204Z,49.60
2024-03-04T16:24:57.377Z,50.20
2024-03-04T16:27:00.121Z,49.47
2024-03-04T16:29:02.860Z,47.00
2024-03-04T16:31:07.713Z,50.90
2024-03-04T16:33:10.558Z,48.87
2024-03-04T16:35:13.369Z,48.30
2024-03-04T16:37:17.036Z,48.57
2024-03-04T16:39:19.970Z,45.20
2024-03-04T16:41:24.248Z,48.83
2024-03-04T16:43:27.188Z,48.83
2024-03-04T16:45:31.327Z,50.40
2024-03-04T16:47:34.562Z,49.27
2024-03-04T16:49:37.320Z,51.90
2024-03-04T16:51:40.267Z,49.10
2024-03-04T16:53:43.009Z,49.27
2024-03-04T16:55:46.094Z,48.50
2024-03-04T16:57:50.541Z,51.03
2024-03-04T16:59:53.290Z,49.93
2024-03-04T17:01:56.164Z,50.23
2024-03-04T17:03:59.448Z,48.07
2024-03-04T17:06:02.345Z,49.57
2024-03-04T17:08:06.648Z,50.57
2024-03-04T17:10:12.545Z,49.93
2024-03-04T17:12:15.387Z,49.57
2024-03-04T17:14:19.729Z,49.37
2024-03-04T17:16:21.964Z,50.13
2024-03-04T17:18:24.782Z,52.20
2024-03-04T17:20:26.561Z,51.83
2024-03-04T17:22:29.334Z,50.03
2024-03-04T17:24:32.167Z,56.78
2024-03-04T17:26:34.907Z,55.37
2024-03-04T17:28:38.162Z,52.37
2024-03-04T17:30:41.310Z,53.33
2024-03-04T17:32:44.083Z,49.77
2024-03-04T17:34:46.986Z,51.30
2024-03-04T17:36:49.779Z,48.20
2024-03-04T17:38:53.498Z,52.63
2024-03-04T17:40:57.588Z,52.00
2024-03-04T17:43:00.397Z,51.27
2024-03-04T17:45:02.217Z,51.90
2024-03-04T17:47:07.012Z,52.17
2024-03-04T17:49:09.808Z,49.13
2024-03-04T17:51:14.736Z,50.97
2024-03-04T17:53:17.750Z,51.50
2024-03-04T17:55:20.553Z,52.07
2024-03-04T17:57:23.318Z,50.37
2024-03-04T17:59:26.088Z,53.13
2024-03-04T18:01:29.089Z,54.10
2024-03-04T18:03:32.276Z,50.40
2024-03-04T18:05:35.015Z,51.77
2024-03-04T18:07:39.556Z,52.33
2024-03-04T18:09:43.280Z,51.77
2024-03-04T18:11:46.055Z,51.27
2024-03-04T18:13:48.912Z,52.03
2024-03-04T18:15:52.903Z,50.63
2024-03-04T18:17:56.391Z,52.80
2024-03-04T18:20:00.697Z,51.17
2024-03-04T18:22:04.374Z,51.43
2024-03-04T18:24:07.816Z,52.60
2024-03-04T18:26:10.572Z,53.77
2024-03-04T18:28:13.392Z,52.17
2024-03-04T18:30:17.519Z,53.00
2024-03-04T18:32:20.285Z,51.60
2024-03-04T18:34:23.862Z,54.93
2024-03-04T18:36:28.045Z,52.63
2024-03-04T18:38:30.784Z,53.43
2024-03-04T18:40:33.932Z,56.17
2024-03-04T18:42:35.729Z,53.17
2024-03-04T18:44:38.593Z,52.70
2024-03-04T18:46:44.363Z,52.43
2024-03-04T18:48:46.238Z,54.97
2024-03-04T18:50:48.985Z,55.70
2024-03-04T18:52:53.953Z,54.20
2024-03-04T18:54:57.487Z,53.20
2024-03-04T18:57:00.230Z,54.83
2024-03-04T18:59:03.044Z,55.43
2024-03-04T19:01:05.863Z,53.13
2024-03-04T19:03:08.644Z,54.60
2024-03-04T19:05:12.737Z,60.10
2024-03-04T19:07:15.583Z,59.20
2024-03-04T19:09:21.674Z,55.00
2024-03-04T19:11:25.989Z,52.63
2024-03-04T19:13:29.827Z,51.77
2024-03-04T19:15:32.574Z,49.00
2024-03-04T19:17:35.454Z,50.03
2024-03-04T19:19:38.248Z,53.73
2024-03-04T19:21:40.993Z,56.33
2024-03-04T19:23:43.755Z,56.37
2024-03-04T19:25:47.954Z,58.30
2024-03-04T19:27:50.793Z,58.07
2024-03-04T19:29:53.580Z,58.60
2024-03-04T19:31:56.338Z,57.67
2024-03-04T19:33:59.438Z,59.33
2024-03-04T19:36:04.274Z,57.17
2024-03-04T19:38:07.017Z,56.47
2024-03-04T19:40:12.207Z,57.97
2024-03-04T19:42:16.437Z,55.33
2024-03-04T19:44:19.200Z,55.57
2024-03-04T19:46:23.441Z,57.50
2024-03-04T19:48:26.274Z,56.57
2024-03-04T19:50:29.291Z,59.17
2024-03-04T19:52:32.106Z,55.80
2024-03-04T19:54:35.008Z,60.83
2024-03-04T19:56:38.237Z,59.63
2024-03-04T19:58:45.493Z,59.67
2024-03-04T20:00:49.802Z,59.10
2024-03-04T20:02:52.700Z,56.00
2024-03-04T20:04:54.581Z,62.20
2024-03-04T20:06:59.171Z,58.93
2024-03-04T20:09:03.479Z,59.60
2024-03-04T20:11:07.625Z,58.80
2024-03-04T20:13:10.561Z,58.80
2024-03-04T20:15:14.738Z,56.27
2024-03-04T20:17:16.541Z,58.60
2024-03-04T20:19:20.293Z,58.00
2024-03-04T20:21:23.051Z,56.53
2024-03-04T20:23:24.925Z,56.63
2024-03-04T20:25:27.713Z,57.90
2024-03-04T20:27:30.488Z,57.20
2024-03-04T20:29:33.233Z,58.23
2024-03-04T20:31:37.874Z,64.53
2024-03-04T20:33:41.413Z,61.73
2024-03-04T20:35:45.357Z,65.30
2024-03-04T20:37:48.184Z,66.47
2024-03-04T20:39:50.965Z,62.07
2024-03-04T20:41:53.722Z,64.03
2024-03-04T20:43:56.500Z,65.47
2024-03-04T20:45:59.399Z,62.33
2024-03-04T20:48:03.715Z,60.07
2024-03-04T20:50:07.723Z,60.87
2024-03-04T20:52:10.602Z,60.20
2024-03-04T20:54:13.385Z,62.03
2024-03-04T20:56:16.673Z,61.27
2024-03-04T20:58:19.592Z,61.87
2024-03-04T21:00:22.553Z,63.77
2024-03-04T21:02:25.351Z,61.90
2024-03-04T21:04:28.520Z,62.80
2024-03-04T21:06:31.284Z,63.10
2024-03-04T21:08:34.017Z,63.30
2024-03-04T21:10:36.770Z,64.07
2024-03-04T21:12:38.678Z,61.23
2024-03-04T21:14:41.424Z,59.87
2024-03-04T21:16:44.201Z,60.97
2024-03-04T21:18:46.946Z,57.33
2024-03-04T21:20:51.018Z,55.00
2024-03-04T21:22:55.063Z,59.63
2024-03-04T21:24:57.918Z,60.93
2024-03-04T21:27:00.675Z,57.97
2024-03-04T21:29:03.428Z,61.50
2024-03-04T21:31:05.502Z,63.27
2024-03-04T21:33:08.306Z,65.37
2024-03-04T21:35:11.839Z,65.60
2024-03-04T21:37:21.369Z,62.90
2024-03-04T21:39:30.391Z,61.57
2024-03-04T21:41:33.136Z,59.60
2024-03-04T21:43:35.945Z,60.70
2024-03-04T21:45:38.739Z,62.90
2024-03-04T21:47:41.577Z,64.37
2024-03-04T21:49:44.449Z,60.17
2024-03-04T21:51:47.479Z,60.37
2024-03-04T21:53:51.608Z,64.30
2024-03-04T21:55:54.461Z,63.30
2024-03-04T21:57:59.229Z,66.83
2024-03-04T22:00:01.086Z,67.10
2024-03-04T22:02:05.634Z,67.23
2024-03-04T22:04:08.474Z,68.23
2024-03-04T22:06:19.561Z,71.43
2024-03-04T22:08:23.313Z,68.33
2024-03-04T22:10:27.751Z,67.73
2024-03-04T22:12:30.525Z,69.07
2024-03-04T22:14:32.303Z,70.90
2024-03-04T22:16:35.127Z,72.13
2024-03-04T22:18:37.969Z,73.40
2024-03-04T22:20:40.755Z,72.27
2024-03-04T22:22:43.586Z,70.30
2024-03-04T22:24:45.396Z,69.70
2024-03-04T22:26:50.165Z,75.10
2024-03-04T22:28:53.630Z,76.60
2024-03-04T22:30:56.979Z,79.27
2024-03-04T22:33:00.911Z,76.47
2024-03-04T22:35:04.033Z,78.57
2024-03-04T22:37:05.823Z,82.43
2024-03-04T22:39:10.505Z,79.53
2024-03-04T22:41:13.304Z,76.60
2024-03-04T22:43:19.483Z,74.90
2024-03-04T22:45:22.305Z,75.37
2024-03-04T22:47:25.102Z,74.00
2024-03-04T22:49:27.935Z,76.00
2024-03-04T22:51:29.909Z,79.00
2024-03-04T22:53:32.690Z,78.80
2024-03-04T22:55:35.496Z,84.93
2024-03-04T22:57:38.326Z,82.23
2024-03-04T22:59:42.761Z,82.27
2024-03-04T23:01:45.556Z,81.13
2024-03-04T23:03:48.399Z,78.27
2024-03-04T23:05:51.671Z,79.37
2024-03-04T23:07:54.958Z,78.07
2024-03-04T23:09:57.807Z,79.97
2024-03-04T23:11:59.620Z,82.37
2024-03-04T23:14:02.479Z,81.30
2024-03-04T23:16:09.980Z,82.23
2024-03-04T23:18:13.258Z,80.33
2024-03-04T23:20:15.233Z,86.43
2024-03-04T23:22:18.005Z,82.10
2024-03-04T23:24:20.754Z,81.37
2024-03-04T23:26:23.520Z,84.17
2024-03-04T23:28:26.322Z,80.10
2024-03-04T23:30:30.217Z,83.23
2024-03-04T23:32:35.364Z,86.23
2024-03-04T23:34:38.217Z,84.20
2024-03-04T23:36:40.090Z,83.00
2024-03-04T23:38:42.851Z,81.20
2024-03-04T23:40:45.636Z,84.13
2024-03-04T23:42:48.387Z,81.40
2024-03-04T23:44:50.218Z,81.50
2024-03-04T23:46:53.573Z,82.30
2024-03-04T23:48:57.716Z,82.83
2024-03-04T23:50:59.551Z,77.97
2024-03-04T23:53:02.454Z,77.27
2024-03-04T23:55:07.895Z,75.53
2024-03-04T23:57:10.673Z,76.57
2024-03-04T23:59:14.103Z,70.83
